sensor_id;sensor_type;location;lat;lon;timestamp;pressure;altitude;pressure_sealevel;temperature;humidity
12468;BME280;57850;52.922;6.256;2023-02-01T00:01:22;101955.28;;;10.01;100.00
12468;BME280;57850;52.922;6.256;2023-02-01T00:03:48;101957.72;;;10.10;100.00
12468;BME280;57850;52.922;6.256;2023-02-01T00:06:15;101951.06;;;9.93;100.00
12468;BME280;57850;52.922;6.256;2023-02-01T00:08:42;101928.00;;;10.24;100.00
12468;BME280;57850;52.922;6.256;2023-02-01T00:11:11;101933.59;;;9.96;100.00
12468;BME280;57850;52.922;6.256;2023-02-01T00:13:40;101949.19;;;9.99;100.00
12468;BME280;57850;52.922;6.256;2023-02-01T00:16:09;101944.84;;;10.00;100.00
12468;BME280;57850;52.922;6.256;2023-02-01T00:18:36;101943.00;;;10.06;100.00
12468;BME280;57850;52.922;6.256;2023-02-01T00:21:03;101948.16;;;10.11;100.00
12468;BME280;57850;52.922;6.256;2023-02-01T00:23:32;101947.91;;;9.73;100.00
12468;BME280;57850;52.922;6.256;2023-02-01T00:26:00;101922.66;;;10.30;100.00
12468;BME280;57850;52.922;6.256;2023-02-01T00:28:28;101951.19;;;9.84;100.00
12468;BME280;57850;52.922;6.256;2023-02-01T00:30:56;101938.78;;;9.99;100.00
12468;BME280;57850;52.922;6.256;2023-02-01T00:33:23;101917.47;;;10.28;100.00
12468;BME280;57850;52.922;6.256;2023-02-01T00:35:50;101921.91;;;10.23;100.00
12468;BME280;57850;52.922;6.256;2023-02-01T00:38:17;101947.47;;;10.00;100.00
12468;BME280;57850;52.922;6.256;2023-02-01T00:40:43;101926.25;;;10.23;100.00
12468;BME280;57850;52.922;6.256;2023-02-01T00:43:10;101921.75;;;10.31;100.00
12468;BME280;57850;52.922;6.256;2023-02-01T00:45:38;101950.09;;;9.98;100.00
12468;BME280;57850;52.922;6.256;2023-02-01T00:48:05;101932.63;;;10.03;100.00
12468;BME280;57850;52.922;6.256;2023-02-01T00:50:31;101920.53;;;9.99;100.00
12468;BME280;57850;52.922;6.256;2023-02-01T00:52:58;101909.53;;;10.34;100.00
12468;BME280;57850;52.922;6.256;2023-02-01T00:55:25;101935.22;;;10.05;100.00
12468;BME280;57850;52.922;6.256;2023-02-01T00:57:51;101920.34;;;10.11;100.00
12468;BME280;57850;52.922;6.256;2023-02-01T01:00:18;101929.31;;;9.95;100.00
12468;BME280;57850;52.922;6.256;2023-02-01T01:02:47;101922.25;;;10.00;100.00
12468;BME280;57850;52.922;6.256;2023-02-01T01:05:14;101913.28;;;10.18;100.00
12468;BME280;57850;52.922;6.256;2023-02-01T01:07:41;101923.94;;;10.03;100.00
12468;BME280;57850;52.922;6.256;2023-02-01T01:10:08;101907.34;;;10.08;100.00
12468;BME280;57850;52.922;6.256;2023-02-01T01:12:35;101911.63;;;10.14;100.00
12468;BME280;57850;52.922;6.256;2023-02-01T01:15:03;101909.97;;;10.07;100.00
12468;BME280;57850;52.922;6.256;2023-02-01T01:17:31;101899.25;;;10.25;100.00
12468;BME280;57850;52.922;6.256;2023-02-01T01:20:00;101916.75;;;10.18;100.00
12468;BME280;57850;52.922;6.256;2023-02-01T01:22:27;101911.81;;;10.00;100.00
12468;BME280;57850;52.922;6.256;2023-02-01T01:24:53;101916.31;;;9.92;100.00
12468;BME280;57850;52.922;6.256;2023-02-01T01:27:20;101905.22;;;10.32;100.00
12468;BME280;57850;52.922;6.256;2023-02-01T01:29:49;101899.38;;;10.19;100.00
12468;BME280;57850;52.922;6.256;2023-02-01T01:32:16;101900.34;;;10.13;100.00
12468;BME280;57850;52.922;6.256;2023-02-01T01:34:43;101880.75;;;10.37;100.00
12468;BME280;57850;52.922;6.256;2023-02-01T01:37:15;101890.16;;;10.47;100.00
12468;BME280;57850;52.922;6.256;2023-02-01T01:39:45;101881.03;;;10.24;100.00
12468;BME280;57850;52.922;6.256;2023-02-01T01:42:12;101872.88;;;10.40;100.00
12468;BME280;57850;52.922;6.256;2023-02-01T01:45:00;101861.44;;;10.49;100.00
12468;BME280;57850;52.922;6.256;2023-02-01T01:47:31;101886.50;;;10.08;100.00
12468;BME280;57850;52.922;6.256;2023-02-01T01:50:01;101858.72;;;10.53;100.00
12468;BME280;57850;52.922;6.256;2023-02-01T01:52:30;101848.19;;;10.13;100.00
12468;BME280;57850;52.922;6.256;2023-02-01T01:54:59;101874.22;;;10.15;100.00
12468;BME280;57850;52.922;6.256;2023-02-01T01:57:29;101863.47;;;10.33;100.00
12468;BME280;57850;52.922;6.256;2023-02-01T02:00:00;101861.09;;;10.21;100.00
12468;BME280;57850;52.922;6.256;2023-02-01T02:02:29;101869.41;;;9.92;100.00
12468;BME280;57850;52.922;6.256;2023-02-01T02:04:56;101868.59;;;9.89;100.00
12468;BME280;57850;52.922;6.256;2023-02-01T02:07:25;101863.88;;;10.09;100.00
12468;BME280;57850;52.922;6.256;2023-02-01T02:09:54;101855.13;;;10.14;100.00
12468;BME280;57850;52.922;6.256;2023-02-01T02:12:21;101897.84;;;9.49;100.00
12468;BME280;57850;52.922;6.256;2023-02-01T02:14:48;101872.28;;;9.76;100.00
12468;BME280;57850;52.922;6.256;2023-02-01T02:17:24;101859.78;;;9.96;100.00
12468;BME280;57850;52.922;6.256;2023-02-01T02:26:26;101855.03;;;9.67;100.00
12468;BME280;57850;52.922;6.256;2023-02-01T02:29:30;101839.53;;;9.59;100.00
12468;BME280;57850;52.922;6.256;2023-02-01T02:35:26;101828.94;;;9.70;100.00
12468;BME280;57850;52.922;6.256;2023-02-01T02:38:05;101819.16;;;9.83;100.00
12468;BME280;57850;52.922;6.256;2023-02-01T02:40:42;101811.88;;;10.00;100.00
12468;BME280;57850;52.922;6.256;2023-02-01T02:43:21;101817.88;;;9.56;100.00
12468;BME280;57850;52.922;6.256;2023-02-01T02:46:15;101807.00;;;9.83;100.00
12468;BME280;57850;52.922;6.256;2023-02-01T02:49:11;101815.66;;;9.32;100.00
12468;BME280;57850;52.922;6.256;2023-02-01T02:51:44;101812.69;;;9.54;100.00
12468;BME280;57850;52.922;6.256;2023-02-01T02:54:32;101802.03;;;9.68;100.00
12468;BME280;57850;52.922;6.256;2023-02-01T02:57:19;101811.78;;;9.58;100.00
12468;BME280;57850;52.922;6.256;2023-02-01T03:00:07;101814.41;;;9.55;100.00
12468;BME280;57850;52.922;6.256;2023-02-01T03:02:53;101814.38;;;9.58;100.00
12468;BME280;57850;52.922;6.256;2023-02-01T03:05:41;101800.59;;;9.52;100.00
12468;BME280;57850;52.922;6.256;2023-02-01T03:08:14;101794.56;;;9.48;100.00
12468;BME280;57850;52.922;6.256;2023-02-01T03:10:47;101797.63;;;9.73;100.00
12468;BME280;57850;52.922;6.256;2023-02-01T03:13:20;101793.06;;;9.84;100.00
12468;BME280;57850;52.922;6.256;2023-02-01T03:15:53;101789.53;;;9.87;100.00
12468;BME280;57850;52.922;6.256;2023-02-01T03:18:27;101800.94;;;9.81;100.00
12468;BME280;57850;52.922;6.256;2023-02-01T03:20:55;101779.06;;;9.90;100.00
12468;BME280;57850;52.922;6.256;2023-02-01T03:23:28;101786.59;;;10.05;100.00
12468;BME280;57850;52.922;6.256;2023-02-01T03:25:58;101787.91;;;9.81;100.00
12468;BME280;57850;52.922;6.256;2023-02-01T03:28:28;101759.59;;;10.07;100.00
12468;BME280;57850;52.922;6.256;2023-02-01T03:30:57;101759.84;;;9.95;100.00
12468;BME280;57850;52.922;6.256;2023-02-01T03:33:25;101756.03;;;10.13;100.00
12468;BME280;57850;52.922;6.256;2023-02-01T03:35:58;101787.97;;;9.78;100.00
12468;BME280;57850;52.922;6.256;2023-02-01T03:38:32;101773.56;;;10.05;100.00
12468;BME280;57850;52.922;6.256;2023-02-01T03:41:04;101768.59;;;9.91;100.00
12468;BME280;57850;52.922;6.256;2023-02-01T03:43:41;101779.09;;;9.88;100.00
12468;BME280;57850;52.922;6.256;2023-02-01T03:46:12;101769.38;;;9.96;100.00
12468;BME280;57850;52.922;6.256;2023-02-01T03:48:41;101754.34;;;10.10;100.00
12468;BME280;57850;52.922;6.256;2023-02-01T03:51:09;101761.72;;;9.89;100.00
12468;BME280;57850;52.922;6.256;2023-02-01T03:53:39;101772.47;;;9.71;100.00
12468;BME280;57850;52.922;6.256;2023-02-01T03:56:08;101762.41;;;9.98;100.00
12468;BME280;57850;52.922;6.256;2023-02-01T03:58:37;101768.94;;;9.73;100.00
12468;BME280;57850;52.922;6.256;2023-02-01T04:01:03;101774.81;;;9.84;100.00
12468;BME280;57850;52.922;6.256;2023-02-01T04:03:30;101756.28;;;9.99;100.00
12468;BME280;57850;52.922;6.256;2023-02-01T04:05:57;101771.28;;;9.87;100.00
12468;BME280;57850;52.922;6.256;2023-02-01T04:08:24;101777.91;;;9.57;100.00
12468;BME280;57850;52.922;6.256;2023-02-01T04:10:52;101748.69;;;9.87;100.00
12468;BME280;57850;52.922;6.256;2023-02-01T04:13:19;101768.22;;;9.65;100.00
12468;BME280;57850;52.922;6.256;2023-02-01T04:15:46;101773.41;;;9.65;100.00
12468;BME280;57850;52.922;6.256;2023-02-01T04:18:15;101761.34;;;10.07;100.00
12468;BME280;57850;52.922;6.256;2023-02-01T04:20:42;101759.91;;;9.92;100.00
12468;BME280;57850;52.922;6.256;2023-02-01T04:23:09;101762.69;;;9.83;100.00
12468;BME280;57850;52.922;6.256;2023-02-01T04:25:35;101773.06;;;9.85;100.00
12468;BME280;57850;52.922;6.256;2023-02-01T04:28:03;101774.16;;;9.72;100.00
12468;BME280;57850;52.922;6.256;2023-02-01T04:30:30;101748.97;;;10.18;100.00
12468;BME280;57850;52.922;6.256;2023-02-01T04:32:56;101733.06;;;10.32;100.00
12468;BME280;57850;52.922;6.256;2023-02-01T04:35:23;101770.78;;;9.66;100.00
12468;BME280;57850;52.922;6.256;2023-02-01T04:37:49;101760.97;;;9.82;100.00
12468;BME280;57850;52.922;6.256;2023-02-01T04:40:16;101743.31;;;9.96;100.00
12468;BME280;57850;52.922;6.256;2023-02-01T04:42:43;101736.06;;;10.13;100.00
12468;BME280;57850;52.922;6.256;2023-02-01T04:45:11;101747.63;;;9.97;100.00
12468;BME280;57850;52.922;6.256;2023-02-01T04:47:38;101740.38;;;10.13;100.00
12468;BME280;57850;52.922;6.256;2023-02-01T04:50:06;101757.41;;;9.86;100.00
12468;BME280;57850;52.922;6.256;2023-02-01T04:52:35;101736.88;;;10.15;100.00
12468;BME280;57850;52.922;6.256;2023-02-01T04:55:02;101734.34;;;10.09;100.00
12468;BME280;57850;52.922;6.256;2023-02-01T04:57:29;101738.59;;;10.16;100.00
12468;BME280;57850;52.922;6.256;2023-02-01T04:59:55;101733.38;;;10.16;100.00
12468;BME280;57850;52.922;6.256;2023-02-01T05:02:23;101744.91;;;10.03;100.00
12468;BME280;57850;52.922;6.256;2023-02-01T05:04:50;101762.88;;;9.71;100.00
12468;BME280;57850;52.922;6.256;2023-02-01T05:07:17;101734.53;;;10.00;100.00
12468;BME280;57850;52.922;6.256;2023-02-01T05:09:43;101722.69;;;10.29;100.00
12468;BME280;57850;52.922;6.256;2023-02-01T05:12:10;101743.16;;;10.05;100.00
12468;BME280;57850;52.922;6.256;2023-02-01T05:14:54;101730.13;;;10.05;100.00
12468;BME280;57850;52.922;6.256;2023-02-01T05:17:21;101734.94;;;10.25;100.00
12468;BME280;57850;52.922;6.256;2023-02-01T05:19:50;101749.31;;;10.00;100.00
12468;BME280;57850;52.922;6.256;2023-02-01T05:22:16;101725.09;;;10.39;100.00
12468;BME280;57850;52.922;6.256;2023-02-01T05:24:44;101763.19;;;10.02;100.00
12468;BME280;57850;52.922;6.256;2023-02-01T05:27:10;101760.59;;;10.02;100.00
12468;BME280;57850;52.922;6.256;2023-02-01T05:29:37;101753.00;;;9.90;100.00
12468;BME280;57850;52.922;6.256;2023-02-01T05:32:04;101769.44;;;9.93;100.00
12468;BME280;57850;52.922;6.256;2023-02-01T05:34:31;101746.81;;;10.40;100.00
12468;BME280;57850;52.922;6.256;2023-02-01T05:36:58;101749.03;;;10.15;100.00
12468;BME280;57850;52.922;6.256;2023-02-01T05:39:25;101757.72;;;10.17;100.00
12468;BME280;57850;52.922;6.256;2023-02-01T05:41:52;101752.50;;;10.17;100.00
12468;BME280;57850;52.922;6.256;2023-02-01T05:44:18;101742.81;;;10.24;100.00
12468;BME280;57850;52.922;6.256;2023-02-01T05:46:45;101769.59;;;9.84;100.00
12468;BME280;57850;52.922;6.256;2023-02-01T05:49:11;101765.72;;;10.06;100.00
12468;BME280;57850;52.922;6.256;2023-02-01T05:51:38;101729.31;;;10.45;100.00
12468;BME280;57850;52.922;6.256;2023-02-01T05:54:07;101757.88;;;10.06;100.00
12468;BME280;57850;52.922;6.256;2023-02-01T05:56:34;101756.78;;;10.19;100.00
12468;BME280;57850;52.922;6.256;2023-02-01T05:59:01;101734.53;;;10.45;100.00
12468;BME280;57850;52.922;6.256;2023-02-01T06:01:27;101737.34;;;10.34;100.00
12468;BME280;57850;52.922;6.256;2023-02-01T06:03:54;101763.88;;;10.11;100.00
12468;BME280;57850;52.922;6.256;2023-02-01T06:06:20;101765.28;;;10.29;100.00
12468;BME280;57850;52.922;6.256;2023-02-01T06:08:47;101750.66;;;10.22;100.00
12468;BME280;57850;52.922;6.256;2023-02-01T06:11:15;101741.84;;;10.28;100.00
12468;BME280;57850;52.922;6.256;2023-02-01T06:13:41;101755.78;;;10.27;100.00
12468;BME280;57850;52.922;6.256;2023-02-01T06:16:08;101751.38;;;10.29;100.00
12468;BME280;57850;52.922;6.256;2023-02-01T06:18:35;101736.72;;;10.23;100.00
12468;BME280;57850;52.922;6.256;2023-02-01T06:21:02;101730.19;;;10.44;100.00
12468;BME280;57850;52.922;6.256;2023-02-01T06:23:29;101747.78;;;10.34;100.00
12468;BME280;57850;52.922;6.256;2023-02-01T06:26:01;101728.28;;;10.52;100.00
12468;BME280;57850;52.922;6.256;2023-02-01T06:28:30;101743.00;;;10.14;100.00
12468;BME280;57850;52.922;6.256;2023-02-01T06:30:57;101766.28;;;10.24;100.00
12468;BME280;57850;52.922;6.256;2023-02-01T06:33:24;101769.06;;;10.13;100.00
12468;BME280;57850;52.922;6.256;2023-02-01T06:35:56;101765.13;;;9.91;100.00
12468;BME280;57850;52.922;6.256;2023-02-01T06:38:23;101760.22;;;10.21;100.00
12468;BME280;57850;52.922;6.256;2023-02-01T06:40:52;101740.88;;;10.33;100.00
12468;BME280;57850;52.922;6.256;2023-02-01T06:43:19;101760.53;;;10.05;100.00
12468;BME280;57850;52.922;6.256;2023-02-01T06:45:47;101744.31;;;10.35;100.00
12468;BME280;57850;52.922;6.256;2023-02-01T06:48:14;101756.41;;;10.38;100.00
12468;BME280;57850;52.922;6.256;2023-02-01T06:50:40;101739.63;;;10.51;100.00
12468;BME280;57850;52.922;6.256;2023-02-01T06:53:07;101765.34;;;10.26;100.00
12468;BME280;57850;52.922;6.256;2023-02-01T06:55:34;101764.22;;;10.39;100.00
12468;BME280;57850;52.922;6.256;2023-02-01T06:58:00;101754.44;;;10.49;100.00
12468;BME280;57850;52.922;6.256;2023-02-01T07:00:27;101751.38;;;10.68;100.00
12468;BME280;57850;52.922;6.256;2023-02-01T07:02:57;101770.53;;;10.28;100.00
12468;BME280;57850;52.922;6.256;2023-02-01T07:05:24;101776.59;;;10.30;100.00
12468;BME280;57850;52.922;6.256;2023-02-01T07:07:51;101780.28;;;10.18;100.00
12468;BME280;57850;52.922;6.256;2023-02-01T07:10:17;101788.16;;;10.16;100.00
12468;BME280;57850;52.922;6.256;2023-02-01T07:12:44;101763.44;;;10.34;100.00
12468;BME280;57850;52.922;6.256;2023-02-01T07:15:10;101760.16;;;10.66;100.00
12468;BME280;57850;52.922;6.256;2023-02-01T07:17:37;101776.78;;;10.20;100.00
12468;BME280;57850;52.922;6.256;2023-02-01T07:20:07;101759.81;;;10.41;100.00
12468;BME280;57850;52.922;6.256;2023-02-01T07:22:33;101763.47;;;10.33;100.00
12468;BME280;57850;52.922;6.256;2023-02-01T07:25:00;101768.81;;;10.27;100.00
12468;BME280;57850;52.922;6.256;2023-02-01T07:27:27;101772.31;;;10.26;100.00
12468;BME280;57850;52.922;6.256;2023-02-01T07:29:53;101781.53;;;9.97;100.00
12468;BME280;57850;52.922;6.256;2023-02-01T07:32:20;101762.28;;;10.04;100.00
12468;BME280;57850;52.922;6.256;2023-02-01T07:34:47;101780.78;;;9.91;100.00
12468;BME280;57850;52.922;6.256;2023-02-01T07:37:15;101778.69;;;10.09;100.00
12468;BME280;57850;52.922;6.256;2023-02-01T07:39:42;101788.00;;;9.77;100.00
12468;BME280;57850;52.922;6.256;2023-02-01T07:42:08;101785.63;;;9.64;100.00
12468;BME280;57850;52.922;6.256;2023-02-01T07:44:35;101778.28;;;9.86;100.00
12468;BME280;57850;52.922;6.256;2023-02-01T07:47:02;101782.28;;;10.02;100.00
12468;BME280;57850;52.922;6.256;2023-02-01T07:49:28;101795.66;;;9.86;100.00
12468;BME280;57850;52.922;6.256;2023-02-01T07:51:55;101791.16;;;9.94;100.00
12468;BME280;57850;52.922;6.256;2023-02-01T07:54:23;101792.13;;;9.87;100.00
12468;BME280;57850;52.922;6.256;2023-02-01T07:56:50;101784.25;;;9.91;100.00
12468;BME280;57850;52.922;6.256;2023-02-01T07:59:16;101791.69;;;9.63;100.00
12468;BME280;57850;52.922;6.256;2023-02-01T08:01:43;101783.25;;;9.98;100.00
12468;BME280;57850;52.922;6.256;2023-02-01T08:04:11;101812.56;;;9.62;100.00
12468;BME280;57850;52.922;6.256;2023-02-01T08:06:38;101816.94;;;9.61;100.00
12468;BME280;57850;52.922;6.256;2023-02-01T08:09:06;101797.28;;;9.91;100.00
12468;BME280;57850;52.922;6.256;2023-02-01T08:11:35;101803.47;;;9.86;100.00
12468;BME280;57850;52.922;6.256;2023-02-01T08:14:03;101816.50;;;9.84;100.00
12468;BME280;57850;52.922;6.256;2023-02-01T08:16:29;101778.41;;;10.26;100.00
12468;BME280;57850;52.922;6.256;2023-02-01T08:18:56;101829.91;;;9.64;100.00
12468;BME280;57850;52.922;6.256;2023-02-01T08:21:25;101796.34;;;9.95;100.00
12468;BME280;57850;52.922;6.256;2023-02-01T08:23:53;101798.31;;;9.81;100.00
12468;BME280;57850;52.922;6.256;2023-02-01T08:26:22;101781.00;;;10.26;100.00
12468;BME280;57850;52.922;6.256;2023-02-01T08:28:54;101773.72;;;10.42;100.00
12468;BME280;57850;52.922;6.256;2023-02-01T08:31:22;101782.94;;;10.16;100.00
12468;BME280;57850;52.922;6.256;2023-02-01T08:33:50;101771.31;;;10.31;100.00
12468;BME280;57850;52.922;6.256;2023-02-01T08:36:18;101790.28;;;9.95;100.00
12468;BME280;57850;52.922;6.256;2023-02-01T08:38:44;101774.19;;;10.19;100.00
12468;BME280;57850;52.922;6.256;2023-02-01T08:41:13;101771.50;;;10.22;100.00
12468;BME280;57850;52.922;6.256;2023-02-01T08:43:40;101777.13;;;10.01;100.00
12468;BME280;57850;52.922;6.256;2023-02-01T08:46:09;101790.16;;;10.01;100.00
12468;BME280;57850;52.922;6.256;2023-02-01T08:48:37;101763.69;;;10.24;100.00
12468;BME280;57850;52.922;6.256;2023-02-01T08:51:05;101763.09;;;10.06;100.00
12468;BME280;57850;52.922;6.256;2023-02-01T08:53:32;101743.56;;;10.29;100.00
12468;BME280;57850;52.922;6.256;2023-02-01T08:55:59;101738.31;;;10.30;100.00
12468;BME280;57850;52.922;6.256;2023-02-01T08:58:26;101733.66;;;10.44;100.00
12468;BME280;57850;52.922;6.256;2023-02-01T09:00:52;101740.09;;;10.28;100.00
12468;BME280;57850;52.922;6.256;2023-02-01T09:03:21;101735.28;;;10.07;100.00
12468;BME280;57850;52.922;6.256;2023-02-01T09:05:47;101725.72;;;10.50;100.00
12468;BME280;57850;52.922;6.256;2023-02-01T09:08:15;101733.25;;;10.24;100.00
12468;BME280;57850;52.922;6.256;2023-02-01T09:10:44;101730.06;;;10.50;100.00
12468;BME280;57850;52.922;6.256;2023-02-01T09:13:10;101740.38;;;10.13;100.00
12468;BME280;57850;52.922;6.256;2023-02-01T09:15:37;101723.84;;;10.15;100.00
12468;BME280;57850;52.922;6.256;2023-02-01T09:18:04;101732.44;;;10.20;100.00
12468;BME280;57850;52.922;6.256;2023-02-01T09:20:31;101727.97;;;10.26;100.00
12468;BME280;57850;52.922;6.256;2023-02-01T09:22:58;101721.09;;;10.23;100.00
12468;BME280;57850;52.922;6.256;2023-02-01T09:25:26;101728.97;;;10.18;100.00
12468;BME280;57850;52.922;6.256;2023-02-01T09:27:52;101741.56;;;9.97;100.00
12468;BME280;57850;52.922;6.256;2023-02-01T09:30:20;101717.72;;;10.16;100.00
12468;BME280;57850;52.922;6.256;2023-02-01T09:32:46;101707.75;;;10.37;100.00
12468;BME280;57850;52.922;6.256;2023-02-01T09:35:13;101704.38;;;10.32;100.00
12468;BME280;57850;52.922;6.256;2023-02-01T09:37:41;101753.56;;;10.05;100.00
12468;BME280;57850;52.922;6.256;2023-02-01T09:40:12;101745.34;;;10.27;100.00
12468;BME280;57850;52.922;6.256;2023-02-01T09:42:52;101719.06;;;9.91;100.00
12468;BME280;57850;52.922;6.256;2023-02-01T09:45:27;101718.13;;;9.95;100.00
12468;BME280;57850;52.922;6.256;2023-02-01T09:48:02;101734.09;;;9.79;100.00
12468;BME280;57850;52.922;6.256;2023-02-01T09:50:34;101712.69;;;10.07;100.00
12468;BME280;57850;52.922;6.256;2023-02-01T09:53:06;101727.72;;;9.93;100.00
12468;BME280;57850;52.922;6.256;2023-02-01T09:55:41;101684.72;;;10.15;100.00
12468;BME280;57850;52.922;6.256;2023-02-01T09:58:14;101683.78;;;10.19;100.00
12468;BME280;57850;52.922;6.256;2023-02-01T10:00:50;101691.09;;;9.99;100.00
12468;BME280;57850;52.922;6.256;2023-02-01T10:03:18;101699.03;;;9.95;100.00
12468;BME280;57850;52.922;6.256;2023-02-01T10:05:58;101690.19;;;10.02;100.00
12468;BME280;57850;52.922;6.256;2023-02-01T10:08:35;101677.97;;;10.05;100.00
12468;BME280;57850;52.922;6.256;2023-02-01T10:11:12;101699.97;;;9.91;100.00
12468;BME280;57850;52.922;6.256;2023-02-01T10:13:52;101714.06;;;9.81;100.00
12468;BME280;57850;52.922;6.256;2023-02-01T10:16:31;101691.91;;;10.03;100.00
12468;BME280;57850;52.922;6.256;2023-02-01T10:19:10;101700.94;;;9.85;100.00
12468;BME280;57850;52.922;6.256;2023-02-01T10:21:47;101682.75;;;10.27;100.00
12468;BME280;57850;52.922;6.256;2023-02-01T10:24:25;101707.72;;;9.95;100.00
12468;BME280;57850;52.922;6.256;2023-02-01T10:27:00;101678.91;;;10.01;100.00
12468;BME280;57850;52.922;6.256;2023-02-01T10:29:34;101698.34;;;9.84;100.00
12468;BME280;57850;52.922;6.256;2023-02-01T10:32:14;101694.94;;;9.83;100.00
12468;BME280;57850;52.922;6.256;2023-02-01T10:34:43;101696.78;;;10.21;100.00
12468;BME280;57850;52.922;6.256;2023-02-01T10:37:23;101678.09;;;9.98;100.00
12468;BME280;57850;52.922;6.256;2023-02-01T10:39:54;101716.41;;;9.96;100.00
12468;BME280;57850;52.922;6.256;2023-02-01T10:42:25;101688.72;;;9.89;100.00
12468;BME280;57850;52.922;6.256;2023-02-01T10:44:54;101672.06;;;10.37;100.00
12468;BME280;57850;52.922;6.256;2023-02-01T10:47:21;101678.69;;;10.13;100.00
12468;BME280;57850;52.922;6.256;2023-02-01T10:49:54;101657.00;;;10.50;100.00
12468;BME280;57850;52.922;6.256;2023-02-01T10:52:33;101667.13;;;10.25;100.00
12468;BME280;57850;52.922;6.256;2023-02-01T10:55:36;101688.34;;;10.08;100.00
12468;BME280;57850;52.922;6.256;2023-02-01T10:58:04;101676.19;;;10.06;100.00
12468;BME280;57850;52.922;6.256;2023-02-01T11:00:41;101687.88;;;9.88;100.00
12468;BME280;57850;52.922;6.256;2023-02-01T11:03:31;101658.56;;;10.20;100.00
12468;BME280;57850;52.922;6.256;2023-02-01T11:05:59;101663.94;;;10.09;100.00
12468;BME280;57850;52.922;6.256;2023-02-01T11:08:27;101641.75;;;10.33;100.00
12468;BME280;57850;52.922;6.256;2023-02-01T11:10:59;101659.28;;;10.27;100.00
12468;BME280;57850;52.922;6.256;2023-02-01T11:13:31;101649.53;;;10.35;100.00
12468;BME280;57850;52.922;6.256;2023-02-01T11:16:02;101671.16;;;10.40;100.00
12468;BME280;57850;52.922;6.256;2023-02-01T11:18:31;101637.41;;;10.69;100.00
12468;BME280;57850;52.922;6.256;2023-02-01T11:20:59;101645.31;;;10.66;100.00
12468;BME280;57850;52.922;6.256;2023-02-01T11:23:27;101655.44;;;10.43;100.00
12468;BME280;57850;52.922;6.256;2023-02-01T11:25:58;101642.78;;;10.63;100.00
12468;BME280;57850;52.922;6.256;2023-02-01T11:28:27;101629.50;;;10.72;100.00
12468;BME280;57850;52.922;6.256;2023-02-01T11:30:59;101638.78;;;10.48;100.00
12468;BME280;57850;52.922;6.256;2023-02-01T11:33:29;101652.69;;;10.49;100.00
12468;BME280;57850;52.922;6.256;2023-02-01T11:36:00;101648.88;;;10.25;100.00
12468;BME280;57850;52.922;6.256;2023-02-01T11:38:33;101633.44;;;10.53;100.00
12468;BME280;57850;52.922;6.256;2023-02-01T11:41:13;101632.03;;;10.40;100.00
12468;BME280;57850;52.922;6.256;2023-02-01T11:43:54;101643.06;;;10.51;100.00
12468;BME280;57850;52.922;6.256;2023-02-01T11:46:24;101650.91;;;10.51;100.00
12468;BME280;57850;52.922;6.256;2023-02-01T11:48:54;101647.88;;;10.31;100.00
12468;BME280;57850;52.922;6.256;2023-02-01T11:51:35;101638.94;;;10.41;100.00
12468;BME280;57850;52.922;6.256;2023-02-01T11:54:20;101639.81;;;10.41;100.00
12468;BME280;57850;52.922;6.256;2023-02-01T11:57:01;101629.50;;;10.37;100.00
12468;BME280;57850;52.922;6.256;2023-02-01T11:59:58;101636.91;;;10.53;100.00
12468;BME280;57850;52.922;6.256;2023-02-01T12:02:55;101638.50;;;10.60;100.00
12468;BME280;57850;52.922;6.256;2023-02-01T12:05:33;101610.34;;;11.08;100.00
12468;BME280;57850;52.922;6.256;2023-02-01T12:08:34;101617.41;;;11.03;100.00
12468;BME280;57850;52.922;6.256;2023-02-01T12:11:19;101635.38;;;10.82;100.00
12468;BME280;57850;52.922;6.256;2023-02-01T12:14:02;101617.56;;;10.99;100.00
12468;BME280;57850;52.922;6.256;2023-02-01T12:16:39;101634.44;;;10.84;100.00
12468;BME280;57850;52.922;6.256;2023-02-01T12:19:23;101615.63;;;11.38;100.00
12468;BME280;57850;52.922;6.256;2023-02-01T12:21:58;101616.00;;;11.24;100.00
12468;BME280;57850;52.922;6.256;2023-02-01T12:25:03;101633.78;;;11.10;100.00
12468;BME280;57850;52.922;6.256;2023-02-01T12:27:42;101594.97;;;11.59;100.00
12468;BME280;57850;52.922;6.256;2023-02-01T12:30:34;101618.25;;;11.38;100.00
12468;BME280;57850;52.922;6.256;2023-02-01T12:33:10;101618.28;;;11.36;100.00
12468;BME280;57850;52.922;6.256;2023-02-01T12:36:00;101590.00;;;11.82;100.00
12468;BME280;57850;52.922;6.256;2023-02-01T12:38:44;101607.78;;;11.68;100.00
12468;BME280;57850;52.922;6.256;2023-02-01T12:44:04;101605.31;;;11.64;100.00
12468;BME280;57850;52.922;6.256;2023-02-01T12:46:38;101584.38;;;11.96;100.00
12468;BME280;57850;52.922;6.256;2023-02-01T12:49:11;101586.44;;;11.85;100.00
12468;BME280;57850;52.922;6.256;2023-02-01T12:51:43;101564.72;;;12.39;100.00
12468;BME280;57850;52.922;6.256;2023-02-01T12:54:15;101594.44;;;11.80;100.00
12468;BME280;57850;52.922;6.256;2023-02-01T12:56:48;101554.34;;;12.35;100.00
12468;BME280;57850;52.922;6.256;2023-02-01T12:59:21;101542.75;;;12.69;100.00
12468;BME280;57850;52.922;6.256;2023-02-01T13:01:54;101597.16;;;11.76;100.00
12468;BME280;57850;52.922;6.256;2023-02-01T13:04:27;101589.91;;;11.86;100.00
12468;BME280;57850;52.922;6.256;2023-02-01T13:07:02;101581.38;;;12.08;100.00
12468;BME280;57850;52.922;6.256;2023-02-01T13:09:36;101606.53;;;11.52;100.00
12468;BME280;57850;52.922;6.256;2023-02-01T13:12:09;101610.16;;;11.47;100.00
12468;BME280;57850;52.922;6.256;2023-02-01T13:14:42;101600.00;;;11.67;100.00